Time;durP1;ratioP1;P1;durP2;ratioP2;P2;SDS_P1;SDS_P2;PMS_P1;PMS_P2;Temp;Humidity;BMP_temperature;BMP_pressure;BME280_temperature;BME280_humidity;BME280_pressure;Samples;Min_cycle;Max_cycle;Signal;HPM_P1;HPM_P2
2024/01/31 00:00:39;;;;;;;11.63;6.50;;;8.50;99.90;;;;;;5104783;28;20112;-62
2024/01/31 00:03:06;;;;;;;11.80;6.50;;;8.40;99.90;;;;;;5097929;28;20135;-62
2024/01/31 00:05:32;;;;;;;14.00;6.70;;;8.30;99.90;;;;;;5097268;28;20138;-62
2024/01/31 00:07:59;;;;;;;16.83;6.55;;;8.20;99.90;;;;;;5097238;28;20282;-62
2024/01/31 00:10:26;;;;;;;12.45;6.63;;;8.20;99.90;;;;;;5098475;28;20051;-62
2024/01/31 00:12:53;;;;;;;13.43;6.95;;;8.30;99.90;;;;;;5101704;28;20570;-64
2024/01/31 00:15:20;;;;;;;11.50;6.10;;;8.30;99.90;;;;;;5091820;28;20046;-63
2024/01/31 00:17:47;;;;;;;12.57;6.75;;;8.40;99.90;;;;;;5091481;28;20058;-63
2024/01/31 00:20:14;;;;;;;13.25;7.32;;;8.40;99.90;;;;;;5096648;28;20460;-65
2024/01/31 00:22:41;;;;;;;10.90;6.75;;;8.40;99.90;;;;;;5099279;28;20048;-63
2024/01/31 00:25:09;;;;;;;12.27;6.78;;;8.50;99.90;;;;;;5099171;28;20093;-63
2024/01/31 00:27:35;;;;;;;8.95;5.78;;;8.40;99.90;;;;;;5102952;28;20066;-63
2024/01/31 00:30:03;;;;;;;9.38;5.90;;;8.50;99.90;;;;;;5102644;28;20491;-63
2024/01/31 00:32:30;;;;;;;13.20;7.70;;;8.40;99.90;;;;;;5103273;28;20087;-63
2024/01/31 00:34:57;;;;;;;10.50;6.53;;;8.40;99.90;;;;;;5100559;28;20062;-65
2024/01/31 00:37:24;;;;;;;11.57;6.32;;;8.30;99.90;;;;;;5100361;28;20051;-63
2024/01/31 00:39:51;;;;;;;12.18;6.10;;;8.30;99.90;;;;;;5094543;28;20487;-63
2024/01/31 00:42:19;;;;;;;7.65;5.30;;;8.10;99.90;;;;;;5101509;28;20051;-64
2024/01/31 00:44:45;;;;;;;15.27;7.05;;;8.10;99.90;;;;;;5100541;28;20469;-63
2024/01/31 00:47:13;;;;;;;11.23;6.95;;;8.10;99.90;;;;;;5098838;28;20047;-63
2024/01/31 00:49:40;;;;;;;11.38;6.72;;;8.10;99.90;;;;;;5088852;28;20036;-63
2024/01/31 00:52:07;;;;;;;12.10;6.70;;;8.20;99.90;;;;;;5101477;28;20156;-63
2024/01/31 00:54:34;;;;;;;12.63;5.50;;;8.20;99.90;;;;;;5101614;28;20046;-63
2024/01/31 00:57:01;;;;;;;10.13;6.05;;;8.20;99.90;;;;;;5094875;28;20101;-63
2024/01/31 00:59:28;;;;;;;10.90;7.22;;;8.20;99.90;;;;;;5104349;28;20048;-63
2024/01/31 01:01:55;;;;;;;9.65;6.25;;;8.20;99.90;;;;;;5099924;28;20044;-63
2024/01/31 01:04:22;;;;;;;12.73;6.13;;;8.20;99.90;;;;;;5108027;28;20067;-63
2024/01/31 01:06:49;;;;;;;12.93;7.50;;;8.20;99.90;;;;;;5102560;28;20044;-62
2024/01/31 01:09:16;;;;;;;11.35;6.85;;;8.20;99.90;;;;;;5102671;28;20499;-61
2024/01/31 01:11:42;;;;;;;10.52;5.78;;;8.20;99.90;;;;;;5097229;28;20059;-62
2024/01/31 01:14:09;;;;;;;11.10;6.03;;;8.20;99.90;;;;;;5103534;28;20420;-62
2024/01/31 01:16:36;;;;;;;8.52;5.93;;;8.20;99.90;;;;;;5098142;28;20047;-62
2024/01/31 01:19:04;;;;;;;11.10;6.57;;;8.20;99.90;;;;;;5099442;28;20541;-63
2024/01/31 01:21:31;;;;;;;9.38;5.80;;;8.20;99.90;;;;;;5103464;28;20126;-62
2024/01/31 01:23:58;;;;;;;16.63;7.78;;;8.20;99.90;;;;;;5102812;28;20048;-62
2024/01/31 01:26:26;;;;;;;12.05;5.88;;;8.20;99.90;;;;;;5100284;28;20064;-62
2024/01/31 01:28:53;;;;;;;10.10;5.78;;;8.10;99.90;;;;;;5108925;28;20426;-63
2024/01/31 01:31:20;;;;;;;11.98;5.63;;;8.10;99.90;;;;;;5096544;28;20047;-62
2024/01/31 01:33:47;;;;;;;9.77;6.78;;;8.10;99.90;;;;;;5110204;28;20040;-62
2024/01/31 01:36:14;;;;;;;10.90;6.93;;;8.10;99.90;;;;;;5102702;28;20074;-63
2024/01/31 01:38:41;;;;;;;11.45;6.63;;;8.10;99.90;;;;;;5098366;28;20052;-63
2024/01/31 01:41:08;;;;;;;8.80;6.07;;;8.10;99.90;;;;;;5100760;28;20043;-63
2024/01/31 01:43:35;;;;;;;9.60;5.95;;;8.10;99.90;;;;;;5102704;28;20059;-63
2024/01/31 01:46:12;;;;;;;12.35;6.72;;;8.10;99.90;;;;;;5105076;28;20309;-63
2024/01/31 01:48:39;;;;;;;15.05;7.20;;;8.00;99.90;;;;;;5104800;28;20123;-63
2024/01/31 01:51:06;;;;;;;12.98;7.22;;;8.00;99.90;;;;;;5105754;28;20439;-63
2024/01/31 01:53:37;;;;;;;18.98;7.57;;;8.00;99.90;;;;;;5102968;28;20058;-63
2024/01/31 01:56:05;;;;;;;9.68;6.05;;;7.90;99.90;;;;;;5102114;28;20051;-63
2024/01/31 01:58:32;;;;;;;11.02;6.47;;;7.90;99.90;;;;;;5101267;28;20067;-62
2024/01/31 02:01:03;;;;;;;11.63;6.32;;;7.90;99.90;;;;;;5107210;28;20051;-63
2024/01/31 02:03:30;;;;;;;10.73;6.57;;;8.00;99.90;;;;;;5098776;28;20035;-63
2024/01/31 02:05:58;;;;;;;13.02;6.82;;;8.00;99.90;;;;;;5102973;28;20051;-63
2024/01/31 02:08:28;;;;;;;9.10;6.07;;;8.00;99.90;;;;;;5087859;28;20062;-63
2024/01/31 02:10:58;;;;;;;9.48;5.65;;;8.00;99.90;;;;;;5102200;28;20325;-63
2024/01/31 02:13:25;;;;;;;8.38;5.40;;;7.90;99.90;;;;;;5102842;28;20135;-63
2024/01/31 02:15:55;;;;;;;12.35;6.72;;;7.90;99.90;;;;;;5107251;28;20050;-62
2024/01/31 02:18:23;;;;;;;13.50;5.63;;;7.90;99.90;;;;;;5104526;28;20052;-63
2024/01/31 02:20:50;;;;;;;10.70;4.72;;;7.80;99.90;;;;;;5100844;28;20083;-63
2024/01/31 02:23:17;;;;;;;11.77;7.15;;;7.80;99.90;;;;;;5102200;28;20044;-63
2024/01/31 02:25:47;;;;;;;7.97;5.15;;;7.90;99.90;;;;;;5101007;28;20162;-63
2024/01/31 02:28:14;;;;;;;8.05;4.70;;;7.90;99.90;;;;;;5097193;28;20048;-63
2024/01/31 02:30:41;;;;;;;10.25;5.60;;;7.90;99.90;;;;;;5104007;28;20069;-62
2024/01/31 02:33:08;;;;;;;7.43;4.05;;;7.90;99.90;;;;;;5102667;28;20496;-63
2024/01/31 02:35:35;;;;;;;5.35;3.47;;;7.90;99.90;;;;;;5098798;28;20193;-63
2024/01/31 02:38:02;;;;;;;5.28;3.15;;;7.90;99.90;;;;;;5097677;28;20184;-62
2024/01/31 02:40:29;;;;;;;6.20;3.33;;;7.90;99.90;;;;;;5094154;28;20044;-62
2024/01/31 02:42:57;;;;;;;6.63;3.55;;;8.00;99.90;;;;;;5102775;28;20487;-62
2024/01/31 02:45:24;;;;;;;4.38;3.08;;;8.00;99.90;;;;;;5097033;28;20060;-63
2024/01/31 02:47:50;;;;;;;4.28;2.67;;;8.00;99.90;;;;;;5105197;28;20052;-63
2024/01/31 02:50:17;;;;;;;4.78;2.95;;;8.00;99.90;;;;;;5098608;28;20040;-62
2024/01/31 02:52:44;;;;;;;4.78;2.88;;;8.00;99.90;;;;;;5103857;28;20415;-63
2024/01/31 02:55:11;;;;;;;5.35;3.00;;;8.00;99.90;;;;;;5096658;28;20044;-62
2024/01/31 02:57:38;;;;;;;4.28;2.83;;;8.00;99.90;;;;;;5103092;28;20047;-62
2024/01/31 03:00:11;;;;;;;4.80;2.75;;;8.00;99.90;;;;;;5096705;28;20039;-62
2024/01/31 03:02:40;;;;;;;3.22;2.40;;;7.90;99.90;;;;;;5099794;28;20047;-62
2024/01/31 03:05:07;;;;;;;2.55;1.90;;;7.90;99.90;;;;;;5095563;28;21043;-67
2024/01/31 03:07:34;;;;;;;3.63;1.95;;;7.90;99.90;;;;;;5109071;28;20051;-62
2024/01/31 03:10:01;;;;;;;2.35;1.50;;;7.90;99.90;;;;;;5096898;28;20036;-62
2024/01/31 03:12:28;;;;;;;1.85;1.58;;;7.90;99.90;;;;;;5099744;28;20475;-64
2024/01/31 03:14:56;;;;;;;1.85;1.38;;;7.90;99.90;;;;;;5099493;28;20096;-62
2024/01/31 03:17:22;;;;;;;4.03;1.75;;;7.90;99.90;;;;;;5106971;28;20482;-62
2024/01/31 03:19:49;;;;;;;4.65;1.50;;;7.90;99.90;;;;;;5100479;28;20051;-61
2024/01/31 03:22:16;;;;;;;3.42;1.30;;;7.80;99.90;;;;;;5098347;28;20079;-62
2024/01/31 03:24:43;;;;;;;1.90;1.30;;;7.80;99.90;;;;;;5099981;28;20098;-62
2024/01/31 03:27:10;;;;;;;2.08;1.50;;;7.80;99.90;;;;;;5092268;28;20048;-62
2024/01/31 03:29:39;;;;;;;3.65;1.73;;;7.90;99.90;;;;;;5102608;28;20102;-63
2024/01/31 03:32:06;;;;;;;1.98;1.27;;;7.90;99.90;;;;;;5100139;28;20044;-62
2024/01/31 03:34:33;;;;;;;2.03;1.23;;;7.90;99.90;;;;;;5101425;28;20097;-62
2024/01/31 03:37:02;;;;;;;1.55;1.35;;;7.90;99.90;;;;;;5105418;28;20240;-62
2024/01/31 03:39:29;;;;;;;4.35;1.55;;;8.00;99.90;;;;;;5098212;28;20062;-63
2024/01/31 03:41:56;;;;;;;4.55;1.38;;;7.90;99.90;;;;;;5097952;28;20089;-62
2024/01/31 03:44:23;;;;;;;2.28;1.20;;;7.90;99.90;;;;;;5104366;28;20050;-62
2024/01/31 03:46:50;;;;;;;4.55;2.03;;;7.80;99.90;;;;;;5094713;28;20096;-62
2024/01/31 03:49:16;;;;;;;1.52;1.17;;;7.90;99.90;;;;;;5096261;28;20052;-62
2024/01/31 03:51:44;;;;;;;2.65;1.17;;;7.90;99.90;;;;;;5093603;28;20054;-62
2024/01/31 03:54:10;;;;;;;1.40;1.30;;;7.80;99.90;;;;;;5098768;28;20053;-64
2024/01/31 03:56:37;;;;;;;3.67;1.55;;;7.90;99.90;;;;;;5102870;28;20048;-61
2024/01/31 03:59:04;;;;;;;3.97;1.50;;;7.80;99.90;;;;;;5093956;28;20047;-62
2024/01/31 04:01:31;;;;;;;1.88;1.10;;;7.90;99.90;;;;;;5098079;28;20524;-62
2024/01/31 04:03:58;;;;;;;2.47;1.10;;;7.80;99.90;;;;;;5106611;28;20177;-62
2024/01/31 04:06:25;;;;;;;2.75;1.30;;;7.80;99.90;;;;;;5099668;28;20056;-62
2024/01/31 04:08:51;;;;;;;1.55;1.00;;;7.80;99.90;;;;;;5098672;28;20044;-62
2024/01/31 04:11:18;;;;;;;1.70;1.35;;;7.80;99.90;;;;;;5094247;28;20079;-62
2024/01/31 04:13:45;;;;;;;2.35;0.95;;;7.90;99.90;;;;;;5104839;28;20040;-61
2024/01/31 04:16:15;;;;;;;1.73;0.90;;;7.80;99.90;;;;;;5100729;28;20048;-62
2024/01/31 04:18:42;;;;;;;1.75;0.98;;;7.80;99.90;;;;;;5102258;28;20100;-62
2024/01/31 04:21:10;;;;;;;1.38;0.77;;;7.70;99.90;;;;;;5097033;28;20044;-63
2024/01/31 04:23:36;;;;;;;0.90;0.70;;;7.80;99.90;;;;;;5099590;28;20055;-62
2024/01/31 04:26:03;;;;;;;1.45;1.08;;;7.80;99.90;;;;;;5102646;28;20052;-62
2024/01/31 04:28:30;;;;;;;1.52;0.82;;;7.80;99.90;;;;;;5102059;28;20043;-63
2024/01/31 04:30:57;;;;;;;1.15;1.05;;;7.80;99.90;;;;;;5100689;28;20051;-63
2024/01/31 04:33:24;;;;;;;1.27;0.70;;;7.80;99.90;;;;;;5093926;28;20534;-63
2024/01/31 04:35:51;;;;;;;1.42;0.82;;;7.80;99.90;;;;;;5104472;28;20039;-63
2024/01/31 04:38:19;;;;;;;1.25;0.73;;;7.90;99.90;;;;;;5097717;28;20058;-62
2024/01/31 04:40:45;;;;;;;2.05;0.70;;;7.90;99.90;;;;;;5103517;28;20047;-63
2024/01/31 04:43:15;;;;;;;3.13;0.80;;;7.80;99.90;;;;;;5098768;28;20119;-62
2024/01/31 04:45:43;;;;;;;0.95;0.80;;;7.90;99.90;;;;;;5096497;28;20044;-62
2024/01/31 04:48:10;;;;;;;1.92;1.10;;;7.80;99.90;;;;;;5097417;28;20047;-63
2024/01/31 04:50:37;;;;;;;2.33;1.00;;;7.80;99.90;;;;;;5103743;28;20406;-66
2024/01/31 04:53:04;;;;;;;3.00;1.00;;;7.80;99.90;;;;;;5096215;28;20055;-63
2024/01/31 04:55:31;;;;;;;2.50;0.88;;;7.80;99.90;;;;;;5097043;28;20047;-62
2024/01/31 04:57:58;;;;;;;3.28;1.10;;;7.80;99.90;;;;;;5089653;28;20044;-62
2024/01/31 05:00:25;;;;;;;2.10;1.15;;;7.70;99.90;;;;;;5093003;28;20043;-62
2024/01/31 05:02:52;;;;;;;0.73;0.73;;;7.70;99.90;;;;;;5092610;28;20063;-62
2024/01/31 05:05:19;;;;;;;0.90;0.70;;;7.70;99.90;;;;;;5087834;28;20075;-62
2024/01/31 05:07:46;;;;;;;1.15;0.95;;;7.70;99.90;;;;;;5102563;28;20047;-62
2024/01/31 05:10:13;;;;;;;3.03;0.98;;;7.70;99.90;;;;;;5096600;28;20251;-62
2024/01/31 05:12:40;;;;;;;1.00;0.90;;;7.60;99.90;;;;;;5102199;28;20048;-62
2024/01/31 05:15:07;;;;;;;1.50;0.93;;;7.60;99.90;;;;;;5100117;28;20047;-62
2024/01/31 05:17:34;;;;;;;1.20;1.02;;;7.60;99.90;;;;;;5102948;28;20112;-62
2024/01/31 05:20:02;;;;;;;1.35;1.10;;;7.60;99.90;;;;;;5092502;28;20040;-62
2024/01/31 05:22:29;;;;;;;0.82;0.80;;;7.70;99.90;;;;;;5098765;28;20143;-62
2024/01/31 05:24:56;;;;;;;1.70;1.30;;;7.70;99.90;;;;;;5098530;28;20696;-62
2024/01/31 05:27:23;;;;;;;1.35;1.00;;;7.70;99.90;;;;;;5104251;28;20192;-62
2024/01/31 05:29:50;;;;;;;1.73;1.00;;;7.60;99.90;;;;;;5096202;28;20068;-63
2024/01/31 05:32:17;;;;;;;1.17;1.00;;;7.60;99.90;;;;;;5105087;28;20202;-62
2024/01/31 05:34:44;;;;;;;2.88;0.90;;;7.60;99.90;;;;;;5098311;28;20036;-62
2024/01/31 05:37:11;;;;;;;4.05;1.20;;;7.60;99.90;;;;;;5096942;28;20044;-62
2024/01/31 05:39:38;;;;;;;1.85;1.23;;;7.50;99.90;;;;;;5094377;28;20054;-62
2024/01/31 05:42:05;;;;;;;0.93;0.93;;;7.40;99.90;;;;;;5097472;28;20158;-62
2024/01/31 05:44:32;;;;;;;2.75;1.10;;;7.50;99.90;;;;;;5098780;28;20272;-61
2024/01/31 05:46:59;;;;;;;1.83;1.35;;;7.50;99.90;;;;;;5105646;28;20142;-62
2024/01/31 05:49:25;;;;;;;2.33;1.23;;;7.50;99.90;;;;;;5103980;28;20052;-61
2024/01/31 05:51:53;;;;;;;1.80;1.40;;;7.50;99.90;;;;;;5097474;28;20407;-62
2024/01/31 05:54:20;;;;;;;4.47;1.27;;;7.50;99.90;;;;;;5105420;28;20077;-63
2024/01/31 05:56:46;;;;;;;3.50;1.58;;;7.50;99.90;;;;;;5106675;28;20047;-63
2024/01/31 05:59:13;;;;;;;2.13;1.10;;;7.50;99.90;;;;;;5106959;28;20047;-63
2024/01/31 06:01:40;;;;;;;1.30;0.90;;;7.50;99.90;;;;;;5100519;28;20503;-63
2024/01/31 06:04:09;;;;;;;3.67;1.60;;;7.40;99.90;;;;;;5104923;28;20044;-63
2024/01/31 06:06:36;;;;;;;1.92;1.30;;;7.40;99.90;;;;;;5100303;28;20058;-63
2024/01/31 06:09:05;;;;;;;2.05;1.38;;;7.40;99.90;;;;;;5105739;28;20069;-63
2024/01/31 06:11:33;;;;;;;4.70;1.20;;;7.40;99.90;;;;;;5099652;28;20051;-62
2024/01/31 06:14:00;;;;;;;3.38;1.55;;;7.40;99.90;;;;;;5102907;28;20039;-63
2024/01/31 06:16:26;;;;;;;3.15;1.40;;;7.40;99.90;;;;;;5102072;28;20047;-61
2024/01/31 06:18:53;;;;;;;5.03;1.40;;;7.40;99.90;;;;;;5107287;28;20067;-63
2024/01/31 06:21:20;;;;;;;2.78;1.45;;;7.40;99.90;;;;;;5097956;28;20051;-63
2024/01/31 06:23:47;;;;;;;7.07;1.52;;;7.40;99.90;;;;;;5100139;28;20040;-63
2024/01/31 06:26:14;;;;;;;1.88;1.40;;;7.70;99.90;;;;;;5094537;28;20048;-61
2024/01/31 06:28:41;;;;;;;3.00;1.60;;;7.40;99.90;;;;;;5099319;28;20321;-61
2024/01/31 06:31:16;;;;;;;3.65;1.70;;;7.40;99.90;;;;;;5097091;28;20054;-61
2024/01/31 06:33:43;;;;;;;3.45;1.50;;;7.50;99.90;;;;;;5096289;28;20047;-62
2024/01/31 06:36:10;;;;;;;2.50;1.90;;;7.30;99.90;;;;;;5104537;28;20054;-61
2024/01/31 06:38:37;;;;;;;14.25;2.33;;;7.40;99.90;;;;;;5097079;28;20048;-62
2024/01/31 06:41:04;;;;;;;1.55;1.42;;;7.30;99.90;;;;;;5096917;28;20047;-61
2024/01/31 06:43:31;;;;;;;1.65;1.52;;;7.30;99.90;;;;;;5105159;28;20067;-60
2024/01/31 06:45:57;;;;;;;2.90;1.70;;;7.30;99.90;;;;;;5096458;28;20342;-62
2024/01/31 06:48:25;;;;;;;8.18;1.80;;;7.40;99.90;;;;;;5100016;28;20044;-62
2024/01/31 06:50:52;;;;;;;2.67;1.63;;;7.40;99.90;;;;;;5105656;28;20066;-62
2024/01/31 06:53:19;;;;;;;2.95;1.77;;;7.40;99.90;;;;;;5104602;28;20051;-62
2024/01/31 06:55:45;;;;;;;2.92;1.58;;;7.40;99.90;;;;;;5103661;28;20048;-62
2024/01/31 06:58:12;;;;;;;3.78;2.00;;;7.40;99.90;;;;;;5101545;28;20056;-62
2024/01/31 07:00:39;;;;;;;8.43;1.92;;;7.40;99.90;;;;;;5106957;28;20051;-61
2024/01/31 07:03:08;;;;;;;6.15;1.92;;;7.40;99.90;;;;;;5097095;28;20070;-62
2024/01/31 07:05:34;;;;;;;7.65;2.10;;;7.40;99.90;;;;;;5098903;28;20047;-61
2024/01/31 07:08:01;;;;;;;3.88;1.80;;;7.40;99.90;;;;;;5092362;28;20063;-62
2024/01/31 07:10:28;;;;;;;5.47;2.17;;;7.40;99.90;;;;;;5100194;28;20044;-62
2024/01/31 07:12:55;;;;;;;6.20;1.67;;;7.40;99.90;;;;;;5097686;28;20376;-62
2024/01/31 07:15:22;;;;;;;17.55;2.80;;;7.50;99.90;;;;;;5096470;28;20097;-62
2024/01/31 07:17:49;;;;;;;3.17;1.45;;;7.40;99.90;;;;;;5095562;28;20534;-61
2024/01/31 07:20:16;;;;;;;3.08;1.67;;;7.40;99.90;;;;;;5092660;28;20112;-62
2024/01/31 07:22:43;;;;;;;3.15;2.03;;;7.40;99.90;;;;;;5094390;28;20043;-62
2024/01/31 07:25:13;;;;;;;4.30;1.73;;;7.40;99.90;;;;;;5094100;28;20404;-64
2024/01/31 07:27:41;;;;;;;8.25;1.98;;;7.40;99.90;;;;;;5105326;28;20040;-62
2024/01/31 07:30:11;;;;;;;3.10;1.65;;;7.40;99.90;;;;;;5104335;28;20055;-63
2024/01/31 07:32:38;;;;;;;3.25;2.08;;;7.40;99.90;;;;;;5098960;28;20055;-61
2024/01/31 07:35:09;;;;;;;2.83;1.50;;;7.40;99.90;;;;;;5098017;28;20047;-70
2024/01/31 07:37:38;;;;;;;5.75;1.83;;;7.40;99.90;;;;;;5103422;28;20058;-62
2024/01/31 07:40:06;;;;;;;3.08;1.50;;;7.40;99.90;;;;;;5091844;28;20118;-62
2024/01/31 07:42:33;;;;;;;2.53;1.33;;;7.40;99.90;;;;;;5101304;28;20105;-64
2024/01/31 07:45:04;;;;;;;6.22;2.00;;;7.40;99.90;;;;;;5099103;28;20059;-62
2024/01/31 07:47:31;;;;;;;3.42;1.60;;;7.40;99.90;;;;;;5101421;28;20051;-61
2024/01/31 07:49:58;;;;;;;2.72;1.33;;;7.40;99.90;;;;;;5094461;28;20108;-63
2024/01/31 07:52:25;;;;;;;1.88;1.65;;;7.40;99.90;;;;;;5092577;28;20518;-61
2024/01/31 07:54:52;;;;;;;2.53;1.65;;;7.40;99.90;;;;;;5092567;27;20051;-62
2024/01/31 07:57:19;;;;;;;3.05;1.98;;;7.40;99.90;;;;;;5091718;28;20093;-62
2024/01/31 07:59:46;;;;;;;3.22;1.52;;;7.50;99.90;;;;;;5100302;28;20062;-62
2024/01/31 08:02:12;;;;;;;6.35;1.63;;;7.50;99.90;;;;;;5094275;28;20093;-62
2024/01/31 08:04:39;;;;;;;5.55;2.05;;;7.40;99.90;;;;;;5094648;28;20052;-64
2024/01/31 08:07:06;;;;;;;4.65;1.70;;;7.50;99.90;;;;;;5102173;28;20047;-63
2024/01/31 08:09:33;;;;;;;5.22;2.20;;;7.50;99.90;;;;;;5095794;28;20515;-62
2024/01/31 08:12:00;;;;;;;6.05;1.80;;;7.60;99.90;;;;;;5098986;28;20048;-62
2024/01/31 08:14:27;;;;;;;3.05;1.92;;;7.50;99.90;;;;;;5091705;28;20048;-62
2024/01/31 08:16:54;;;;;;;8.02;2.00;;;7.50;99.90;;;;;;5099108;28;20159;-62
2024/01/31 08:19:21;;;;;;;5.40;1.88;;;7.50;99.90;;;;;;5098384;28;20271;-62
2024/01/31 08:21:48;;;;;;;2.47;1.77;;;7.60;99.90;;;;;;5096157;28;20096;-62
2024/01/31 08:24:15;;;;;;;4.00;2.08;;;7.60;99.90;;;;;;5097571;28;20058;-63
2024/01/31 08:26:42;;;;;;;4.47;2.17;;;7.60;99.90;;;;;;5096857;28;20044;-63
2024/01/31 08:29:08;;;;;;;3.63;1.73;;;7.60;99.90;;;;;;5099623;28;20048;-62
2024/01/31 08:31:48;;;;;;;4.38;2.05;;;7.60;99.90;;;;;;5093157;28;20048;-62
2024/01/31 08:34:17;;;;;;;9.20;1.50;;;7.60;99.90;;;;;;5102326;28;20052;-62
2024/01/31 08:36:44;;;;;;;7.80;2.70;;;7.60;99.90;;;;;;5089202;28;20047;-62
2024/01/31 08:39:10;;;;;;;4.07;1.73;;;7.60;99.90;;;;;;5098645;28;20048;-62
2024/01/31 08:41:37;;;;;;;4.72;2.60;;;7.70;99.90;;;;;;5097475;28;20124;-62
2024/01/31 08:44:04;;;;;;;7.85;2.08;;;7.70;99.90;;;;;;5104193;28;20080;-62
2024/01/31 08:46:31;;;;;;;4.47;2.50;;;7.70;99.90;;;;;;5097358;28;20121;-62
2024/01/31 08:49:08;;;;;;;4.07;2.33;;;7.70;99.90;;;;;;5092100;28;20399;-62
2024/01/31 08:51:38;;;;;;;9.30;2.00;;;7.70;99.90;;;;;;5097637;28;20044;-62
2024/01/31 08:54:06;;;;;;;15.05;2.30;;;7.70;99.90;;;;;;5091613;28;20044;-62
2024/01/31 08:56:36;;;;;;;4.22;2.20;;;7.70;99.90;;;;;;5091980;28;20425;-62
2024/01/31 08:59:02;;;;;;;3.80;2.22;;;7.70;99.90;;;;;;5094415;28;20074;-63
2024/01/31 09:01:29;;;;;;;8.30;2.55;;;7.70;99.90;;;;;;5095024;28;20075;-63
2024/01/31 09:03:56;;;;;;;3.60;2.05;;;7.80;99.90;;;;;;5095637;28;20316;-61
2024/01/31 09:06:24;;;;;;;3.90;2.10;;;7.90;99.90;;;;;;5092610;28;20419;-62
2024/01/31 09:08:53;;;;;;;4.32;2.55;;;7.80;99.90;;;;;;5096962;28;20311;-62
2024/01/31 09:11:20;;;;;;;6.18;2.65;;;7.90;99.90;;;;;;5104018;28;20040;-62
2024/01/31 09:13:49;;;;;;;7.50;2.35;;;7.90;99.90;;;;;;5093735;28;20495;-62
2024/01/31 09:16:16;;;;;;;8.02;3.45;;;7.90;99.90;;;;;;5101695;28;20526;-62
2024/01/31 09:18:43;;;;;;;5.25;2.20;;;8.00;99.90;;;;;;5100555;28;20066;-62
2024/01/31 09:21:21;;;;;;;8.43;2.70;;;8.00;99.90;;;;;;5094490;28;20484;-62
2024/01/31 09:23:49;;;;;;;8.60;3.63;;;8.00;99.90;;;;;;5101403;28;20051;-62
2024/01/31 09:26:20;;;;;;;5.85;2.08;;;8.10;99.90;;;;;;5103146;28;20047;-62
2024/01/31 09:28:47;;;;;;;4.85;2.72;;;8.20;99.90;;;;;;5105278;28;20151;-62
2024/01/31 09:31:23;;;;;;;5.63;2.67;;;8.10;99.90;;;;;;5103106;28;20175;-62
2024/01/31 09:33:51;;;;;;;3.92;2.42;;;8.10;99.90;;;;;;5106187;28;20134;-62
2024/01/31 09:36:18;;;;;;;6.40;2.88;;;8.20;99.90;;;;;;5105781;28;20555;-62
2024/01/31 09:38:47;;;;;;;8.05;2.72;;;8.20;99.90;;;;;;5098190;28;20055;-62
2024/01/31 09:41:15;;;;;;;5.32;1.80;;;8.20;99.90;;;;;;5097586;28;20044;-62
2024/01/31 09:43:45;;;;;;;3.67;1.80;;;8.20;99.90;;;;;;5099211;28;20055;-62
2024/01/31 09:46:13;;;;;;;6.03;1.83;;;8.20;99.90;;;;;;5101713;28;20043;-61
2024/01/31 09:48:40;;;;;;;5.72;2.13;;;8.20;99.90;;;;;;5098760;28;20097;-62
2024/01/31 09:51:07;;;;;;;2.67;1.65;;;8.30;99.90;;;;;;5102796;28;20047;-61
2024/01/31 09:53:38;;;;;;;14.43;3.97;;;8.20;99.90;;;;;;5099620;28;20047;-61
2024/01/31 09:56:05;;;;;;;5.07;2.50;;;8.30;99.90;;;;;;5103823;28;20123;-61
2024/01/31 09:58:32;;;;;;;9.55;2.55;;;8.30;99.90;;;;;;5105574;28;20052;-61
2024/01/31 10:01:02;;;;;;;8.50;2.30;;;8.20;99.90;;;;;;5095976;28;20044;-61
2024/01/31 10:03:39;;;;;;;4.35;2.05;;;8.30;99.90;;;;;;5098258;28;20051;-62
2024/01/31 10:06:06;;;;;;;4.78;3.35;;;8.40;99.90;;;;;;5095602;28;20069;-63
2024/01/31 10:08:38;;;;;;;5.18;2.50;;;8.40;99.90;;;;;;5101436;28;20055;-63
2024/01/31 10:11:05;;;;;;;10.32;2.13;;;8.40;99.90;;;;;;5107876;28;20043;-62
2024/01/31 10:13:32;;;;;;;5.43;2.38;;;8.30;99.90;;;;;;5097168;28;20047;-62
2024/01/31 10:15:59;;;;;;;8.60;1.52;;;8.30;99.90;;;;;;5101825;28;20096;-62
2024/01/31 10:18:28;;;;;;;10.20;2.08;;;8.20;99.90;;;;;;5103527;28;20128;-62
2024/01/31 10:20:59;;;;;;;2.80;1.63;;;8.20;99.90;;;;;;4730588;28;10000623;-62
2024/01/31 10:23:26;;;;;;;5.43;2.45;;;8.10;99.90;;;;;;5100442;28;20061;-63
2024/01/31 10:25:53;;;;;;;6.72;1.60;;;8.20;99.90;;;;;;5092831;28;20130;-61
2024/01/31 10:28:21;;;;;;;4.25;1.90;;;8.30;99.90;;;;;;5095284;28;20538;-62
2024/01/31 10:30:48;;;;;;;7.63;2.13;;;8.30;99.90;;;;;;5094866;28;20125;-62
2024/01/31 10:33:15;;;;;;;7.28;1.88;;;8.40;99.90;;;;;;5097619;28;20083;-62
2024/01/31 10:35:43;;;;;;;5.65;1.63;;;8.50;99.90;;;;;;5099416;28;20039;-62
2024/01/31 10:38:13;;;;;;;6.75;2.20;;;8.50;99.90;;;;;;5104146;28;20054;-62
2024/01/31 10:40:42;;;;;;;7.93;2.92;;;8.50;99.90;;;;;;5092267;28;20458;-62
2024/01/31 10:43:10;;;;;;;4.70;2.17;;;8.60;99.90;;;;;;5100157;28;20071;-61
2024/01/31 10:45:37;;;;;;;4.60;1.40;;;8.60;99.90;;;;;;5097675;28;20054;-62
2024/01/31 10:48:05;;;;;;;6.50;1.58;;;8.60;99.90;;;;;;5101260;28;20508;-62
2024/01/31 10:50:32;;;;;;;8.35;1.80;;;8.40;99.90;;;;;;5091235;28;20109;-62
2024/01/31 10:53:01;;;;;;;8.57;4.28;;;8.40;99.90;;;;;;5097707;28;20521;-62
2024/01/31 10:55:27;;;;;;;6.55;1.60;;;8.40;99.90;;;;;;5081852;28;20039;-61
2024/01/31 10:57:55;;;;;;;4.30;1.40;;;8.40;99.90;;;;;;5097301;28;20427;-62
2024/01/31 11:00:28;;;;;;;7.80;1.45;;;8.30;99.90;;;;;;5098541;28;20044;-62
2024/01/31 11:02:57;;;;;;;7.03;1.88;;;8.30;99.90;;;;;;5087610;28;20050;-62
2024/01/31 11:05:27;;;;;;;6.85;1.80;;;8.30;99.90;;;;;;5088144;28;20304;-61
2024/01/31 11:07:55;;;;;;;5.60;1.35;;;8.20;99.90;;;;;;5098544;28;20053;-61
2024/01/31 11:10:22;;;;;;;3.42;1.38;;;8.20;99.90;;;;;;5097240;28;20048;-61
2024/01/31 11:13:02;;;;;;;3.75;1.38;;;8.20;99.90;;;;;;5094950;28;20054;-61
2024/01/31 11:15:35;;;;;;;4.07;1.00;;;8.20;99.90;;;;;;5080048;28;20566;-62
2024/01/31 11:18:11;;;;;;;4.55;1.10;;;8.20;99.90;;;;;;5097426;28;20481;-61
2024/01/31 11:20:52;;;;;;;3.92;1.10;;;8.40;99.90;;;;;;5087509;28;20048;-62
2024/01/31 11:23:23;;;;;;;6.35;1.40;;;8.30;99.90;;;;;;5096605;28;20047;-62
2024/01/31 11:25:50;;;;;;;6.15;1.35;;;8.30;99.90;;;;;;5091131;28;20043;-62
2024/01/31 11:28:18;;;;;;;2.63;0.95;;;8.30;99.90;;;;;;5094228;27;20044;-62
2024/01/31 11:30:51;;;;;;;5.57;1.23;;;8.40;99.90;;;;;;5084417;28;20040;-61
2024/01/31 11:33:18;;;;;;;2.47;0.98;;;8.40;99.90;;;;;;5087431;28;20058;-62
2024/01/31 11:35:46;;;;;;;5.90;1.00;;;8.40;99.90;;;;;;5091779;28;20044;-62
2024/01/31 11:38:13;;;;;;;6.45;1.02;;;8.50;99.90;;;;;;5093810;28;20052;-62
2024/01/31 11:40:40;;;;;;;5.88;1.00;;;8.50;99.90;;;;;;5093013;28;20074;-62
2024/01/31 11:43:07;;;;;;;4.88;1.20;;;8.50;99.90;;;;;;5096733;28;20048;-65
2024/01/31 11:45:34;;;;;;;15.90;1.50;;;8.60;99.90;;;;;;5088288;28;20274;-61
2024/01/31 11:48:01;;;;;;;5.05;1.13;;;8.50;99.90;;;;;;5090377;28;20105;-62
2024/01/31 11:50:28;;;;;;;4.45;1.45;;;8.50;99.90;;;;;;5094264;28;20579;-62
2024/01/31 11:52:55;;;;;;;8.82;1.30;;;8.60;99.90;;;;;;5089264;28;20495;-62
2024/01/31 11:55:22;;;;;;;6.82;1.17;;;8.50;99.90;;;;;;5076964;28;20056;-62
2024/01/31 11:57:50;;;;;;;9.95;1.27;;;8.50;99.90;;;;;;5091700;28;20089;-62
2024/01/31 12:00:17;;;;;;;4.97;1.20;;;8.40;99.90;;;;;;5085407;28;20067;-62
2024/01/31 12:02:47;;;;;;;8.32;1.38;;;8.50;99.90;;;;;;5084577;28;20109;-62
2024/01/31 12:05:14;;;;;;;6.20;1.13;;;8.50;99.90;;;;;;5092881;28;20147;-62
2024/01/31 12:07:43;;;;;;;8.25;3.97;;;8.50;99.90;;;;;;5091543;28;20047;-62
2024/01/31 12:10:10;;;;;;;6.50;1.25;;;8.50;99.90;;;;;;5093346;28;20067;-63
2024/01/31 12:12:43;;;;;;;9.52;1.63;;;8.40;99.90;;;;;;5096881;28;20043;-62
2024/01/31 12:15:12;;;;;;;11.13;2.58;;;8.40;99.90;;;;;;5095316;28;20055;-61
2024/01/31 12:17:40;;;;;;;8.40;1.60;;;8.40;99.90;;;;;;5095916;28;20050;-62
2024/01/31 12:20:08;;;;;;;7.00;1.42;;;8.50;99.90;;;;;;5092329;28;20059;-62
2024/01/31 12:22:36;;;;;;;12.60;1.60;;;8.60;99.90;;;;;;5093769;28;20119;-62
2024/01/31 12:25:04;;;;;;;7.68;1.90;;;8.60;99.90;;;;;;5093512;28;20052;-62
2024/01/31 12:27:31;;;;;;;8.40;1.42;;;8.70;99.90;;;;;;5089492;28;20067;-63
2024/01/31 12:29:58;;;;;;;5.97;1.25;;;8.80;99.90;;;;;;5097400;28;20043;-61
2024/01/31 12:32:25;;;;;;;5.50;1.17;;;8.80;99.90;;;;;;5091873;28;20059;-61
2024/01/31 12:34:52;;;;;;;8.65;2.72;;;8.90;99.90;;;;;;5093552;28;20051;-65
2024/01/31 12:37:20;;;;;;;6.18;2.53;;;9.00;99.90;;;;;;5090134;28;20648;-61
2024/01/31 12:39:46;;;;;;;6.78;1.88;;;9.00;99.90;;;;;;5094126;28;20470;-62
2024/01/31 12:42:14;;;;;;;9.38;2.58;;;9.10;99.90;;;;;;5099225;28;20048;-62
2024/01/31 12:44:42;;;;;;;9.82;1.73;;;9.10;99.90;;;;;;5090142;28;20060;-62
2024/01/31 12:47:10;;;;;;;5.35;1.67;;;9.20;99.90;;;;;;5092610;28;20047;-62
2024/01/31 12:49:40;;;;;;;9.82;1.55;;;9.20;99.90;;;;;;5091984;28;20845;-61
2024/01/31 12:52:08;;;;;;;4.72;1.30;;;9.30;99.90;;;;;;5107057;28;20043;-61
2024/01/31 12:54:35;;;;;;;7.60;2.03;;;9.30;99.90;;;;;;5100250;28;20240;-62
2024/01/31 12:57:02;;;;;;;6.88;1.23;;;9.30;99.90;;;;;;5090862;28;20040;-62